This is the latest recevied weather packets stored in our database for station/object KB4KY. If no packets are shown the sender has not sent any weather packets the latest 10 day(s).
| Time | Temp. | Humidity | Pressure | Rain* | Wind** | Luminosity | Snow |
|---|---|---|---|---|---|---|---|
| 1778058801 | 11.11° C | 97% | 1007.8 hPa | 2.29 mm | - | - | - |
| 1778058500 | 11.11° C | 97% | 1007.4 hPa | 2.79 mm | - | - | - |
| 1778058200 | 11.11° C | 97% | 1007.3 hPa | 2.54 mm | - | - | - |
| 1778057932 | 11.11° C | 97% | 1008 hPa | 2.03 mm | - | - | - |
| 1778057900 | 11.11° C | 97% | 1007.4 hPa | 2.54 mm | - | - | - |
| 1778057601 | 11.11° C | 97% | 1008 hPa | 2.03 mm | - | - | - |
| 1778057350 | 11.11° C | 97% | 1008 hPa | 1.78 mm | - | - | - |
| 1778057299 | 11.11° C | 97% | 1008 hPa | 1.78 mm | - | - | - |
| 1778057230 | 11.11° C | 97% | 1008 hPa | 1.27 mm | - | - | - |
| 1778057001 | 11.11° C | 97% | 1008 hPa | 1.27 mm | - | - | - |
| 1778056698 | 11.11° C | 97% | 1007.7 hPa | 1.27 mm | - | - | - |
| 1778056677 | 11.11° C | 97% | 1007.7 hPa | 1.27 mm | - | - | - |
| 1778056450 | 11.11° C | 97% | 1007.7 hPa | 1.27 mm | - | - | - |
| 1778056402 | 11.11° C | 97% | 1007.7 hPa | 1.27 mm | - | - | - |
| 1778056290 | 11.11° C | 97% | 1007.6 hPa | 1.27 mm | - | - | - |
| 1778056098 | 11.11° C | 97% | 1007.6 hPa | 1.27 mm | - | - | - |
| 1778055990 | 11.11° C | 97% | 1007.1 hPa | 1.52 mm | - | - | - |
| 1778055937 | 11.67° C | 97% | 1006.9 hPa | 1.52 mm | - | - | - |
| 1778055937 | 11.11° C | 97% | 1007.1 hPa | 1.52 mm | - | - | - |
| 1778055798 | 11.11° C | 97% | 1007.1 hPa | 1.52 mm | - | - | - |
| 1778055745 | 11.67° C | 97% | 1006.8 hPa | 1.52 mm | - | - | - |
| 1778055497 | 11.67° C | 97% | 1006.9 hPa | 1.52 mm | - | - | - |
| 1778055197 | 11.67° C | 97% | 1006.6 hPa | 1.52 mm | - | - | - |
| 1778055017 | 11.67° C | 97% | 1006.8 hPa | 1.52 mm | - | - | - |
| 1778054897 | 11.67° C | 97% | 1006.8 hPa | 1.52 mm | - | - | - |
* Rain latest hour (hover to see other rain measurements)
** Current wind speed in m/s (hover to see current wind gust speed)